createdAt,value
2018-07-23T00:04:38.255Z,19.60
2018-07-23T00:09:35.497Z,19.60
2018-07-23T00:12:04.270Z,19.60
2018-07-23T00:14:33.040Z,19.60
2018-07-23T00:17:01.822Z,19.60
2018-07-23T00:19:30.712Z,19.60
2018-07-23T00:21:59.597Z,19.50
2018-07-23T00:24:28.510Z,19.50
2018-07-23T00:26:57.284Z,19.50
2018-07-23T00:29:26.137Z,19.50
2018-07-23T00:34:23.405Z,19.50
2018-07-23T00:39:20.744Z,19.60
2018-07-23T00:45:04.405Z,19.60
2018-07-23T00:47:33.225Z,19.60
2018-07-23T00:50:01.986Z,19.50
2018-07-23T00:52:30.770Z,19.50
2018-07-23T00:54:59.559Z,19.50
2018-07-23T00:57:28.597Z,19.40
2018-07-23T00:59:57.615Z,19.40
2018-07-23T01:04:54.987Z,19.40
2018-07-23T01:07:24.140Z,19.40
2018-07-23T01:09:53.385Z,19.40
2018-07-23T01:12:25.709Z,19.50
2018-07-23T01:14:54.593Z,19.40
2018-07-23T01:17:23.349Z,19.40
2018-07-23T01:19:53.113Z,19.30
2018-07-23T01:24:51.162Z,19.20
2018-07-23T01:27:20.231Z,19.10
2018-07-23T01:29:49.192Z,19.10
2018-07-23T01:34:47.376Z,19.00
2018-07-23T01:39:45.201Z,19.10
2018-07-23T01:42:13.961Z,19.10
2018-07-23T01:44:42.717Z,19.10
2018-07-23T01:47:11.628Z,19.00
2018-07-23T01:52:08.888Z,19.00
2018-07-23T01:57:06.112Z,19.00
2018-07-23T01:59:34.928Z,19.00
2018-07-23T02:02:03.696Z,18.90
2018-07-23T02:04:36.540Z,18.90
2018-07-23T02:09:34.312Z,18.90
2018-07-23T02:14:31.793Z,18.90
2018-07-23T02:17:00.550Z,18.90
2018-07-23T02:19:29.324Z,18.90
2018-07-23T02:21:58.540Z,18.90
2018-07-23T02:24:27.388Z,18.80
2018-07-23T02:26:56.130Z,18.90
2018-07-23T02:29:24.924Z,18.90
2018-07-23T02:34:22.233Z,18.80
2018-07-23T02:36:51.029Z,18.70
2018-07-23T02:39:19.821Z,18.70
2018-07-23T02:41:48.729Z,18.70
2018-07-23T02:44:17.550Z,18.70
2018-07-23T02:46:46.329Z,18.70
2018-07-23T02:49:15.138Z,18.60
2018-07-23T02:54:12.425Z,18.60
2018-07-23T02:56:41.181Z,18.60
2018-07-23T02:59:09.960Z,18.60
2018-07-23T03:01:38.708Z,18.50
2018-07-23T03:04:07.768Z,18.50
2018-07-23T03:09:06.850Z,18.50
2018-07-23T03:11:35.866Z,18.50
2018-07-23T03:14:04.629Z,18.50
2018-07-23T03:16:33.430Z,18.40
2018-07-23T03:19:02.201Z,18.40
2018-07-23T03:21:31.116Z,18.40
2018-07-23T03:23:59.981Z,18.30
2018-07-23T03:26:28.952Z,18.30
2018-07-23T03:31:26.376Z,18.30
2018-07-23T03:33:55.468Z,18.30
2018-07-23T03:36:24.295Z,18.30
2018-07-23T03:38:53.047Z,18.20
2018-07-23T03:41:21.823Z,18.20
2018-07-23T03:43:50.576Z,18.20
2018-07-23T03:46:19.369Z,18.20
2018-07-23T03:48:48.112Z,18.20
2018-07-23T03:51:16.891Z,18.20
2018-07-23T03:53:45.641Z,18.20
2018-07-23T03:56:14.436Z,18.20
2018-07-23T03:58:43.176Z,18.30
2018-07-23T04:01:11.915Z,18.20
2018-07-23T04:03:40.828Z,18.30
2018-07-23T04:06:09.588Z,18.40
2018-07-23T04:08:38.368Z,18.40
2018-07-23T04:11:07.365Z,18.40
2018-07-23T04:13:36.104Z,18.40
2018-07-23T04:18:33.477Z,18.40
2018-07-23T04:21:02.276Z,18.40
2018-07-23T04:23:31.393Z,18.40
2018-07-23T04:28:28.577Z,18.40
2018-07-23T04:30:57.333Z,18.40
2018-07-23T04:33:26.101Z,18.40
2018-07-23T04:38:23.360Z,18.40
2018-07-23T04:40:52.240Z,18.40
2018-07-23T04:43:21.031Z,18.40
2018-07-23T04:45:49.793Z,18.50
2018-07-23T04:48:18.539Z,18.50
2018-07-23T04:50:47.330Z,18.50
2018-07-23T04:53:16.385Z,18.50
2018-07-23T04:55:45.414Z,18.50
2018-07-23T05:00:42.721Z,18.50
2018-07-23T05:03:11.532Z,18.50
2018-07-23T05:05:40.287Z,18.60
2018-07-23T05:08:09.027Z,18.60
2018-07-23T05:10:37.768Z,18.60
2018-07-23T05:13:06.593Z,18.60
2018-07-23T05:15:35.327Z,18.60
2018-07-23T05:18:04.035Z,18.60
2018-07-23T05:20:32.789Z,18.60
2018-07-23T05:25:30.069Z,18.70
2018-07-23T05:27:58.953Z,18.70
2018-07-23T05:30:27.729Z,18.70
2018-07-23T05:35:24.968Z,18.80
2018-07-23T05:37:53.736Z,18.80
2018-07-23T05:40:22.549Z,18.80
2018-07-23T05:42:51.364Z,18.80
2018-07-23T05:45:20.088Z,18.90
2018-07-23T05:47:48.820Z,18.90
2018-07-23T05:50:17.550Z,19.00
2018-07-23T05:52:46.325Z,19.00
2018-07-23T05:55:15.285Z,19.00
2018-07-23T05:57:44.119Z,19.10
2018-07-23T06:00:12.845Z,19.10
2018-07-23T06:02:41.593Z,19.10
2018-07-23T06:05:10.341Z,19.20
2018-07-23T06:07:39.100Z,19.20
2018-07-23T06:10:07.852Z,19.20
2018-07-23T06:12:36.648Z,19.30
2018-07-23T06:15:05.935Z,19.30
2018-07-23T06:17:34.892Z,19.30
2018-07-23T06:20:03.665Z,19.40
2018-07-23T06:22:32.405Z,19.40
2018-07-23T06:25:01.460Z,19.50
2018-07-23T06:27:30.404Z,19.50
2018-07-23T06:29:59.176Z,19.60
2018-07-23T06:32:27.920Z,19.70
2018-07-23T06:34:56.945Z,19.80
2018-07-23T06:42:22.741Z,20.00
2018-07-23T06:44:51.548Z,20.00
2018-07-23T06:47:20.349Z,20.10
2018-07-23T06:49:49.104Z,20.10
2018-07-23T06:52:17.861Z,20.10
2018-07-23T06:57:15.112Z,20.10
2018-07-23T06:59:43.877Z,20.40
2018-07-23T07:04:41.396Z,20.70
2018-07-23T07:09:38.718Z,20.90
2018-07-23T07:12:08.252Z,20.90
2018-07-23T07:14:37.045Z,20.90
2018-07-23T07:17:05.957Z,20.90
2018-07-23T07:22:03.217Z,21.00
2018-07-23T07:24:32.133Z,21.00
2018-07-23T07:27:00.889Z,21.00
2018-07-23T07:29:29.648Z,21.10
2018-07-23T07:31:58.425Z,21.10
2018-07-23T07:34:27.252Z,21.10
2018-07-23T07:36:56.049Z,21.10
2018-07-23T07:41:53.413Z,20.90
2018-07-23T07:44:22.455Z,21.00
2018-07-23T07:46:51.297Z,21.00
2018-07-23T07:49:20.205Z,21.10
2018-07-23T07:54:18.240Z,21.50
2018-07-23T07:56:46.973Z,21.60
2018-07-23T08:06:41.396Z,21.80
2018-07-23T08:09:10.565Z,21.60
2018-07-23T08:11:40.084Z,21.50
2018-07-23T08:14:08.868Z,21.60
2018-07-23T08:16:37.676Z,21.70
2018-07-23T08:19:06.570Z,21.80
2018-07-23T08:21:35.369Z,21.80
2018-07-23T08:24:04.119Z,21.80
2018-07-23T08:26:32.978Z,22.00
2018-07-23T08:29:01.745Z,22.10
2018-07-23T08:33:59.022Z,22.20
2018-07-23T08:36:27.881Z,22.30
2018-07-23T08:38:56.939Z,22.30
2018-07-23T08:41:25.709Z,22.10
2018-07-23T08:43:54.521Z,22.10
2018-07-23T08:46:23.277Z,22.10
2018-07-23T08:51:20.743Z,22.60
2018-07-23T08:53:49.513Z,22.70
2018-07-23T08:56:18.301Z,22.60
2018-07-23T08:58:47.213Z,22.50
2018-07-23T09:03:44.621Z,22.50
2018-07-23T09:06:13.448Z,22.40
2018-07-23T09:08:42.333Z,22.40
2018-07-23T09:11:11.057Z,22.50
2018-07-23T09:16:08.597Z,23.10
2018-07-23T09:18:37.468Z,23.20
2018-07-23T09:21:06.589Z,23.10
2018-07-23T09:23:35.387Z,23.00
2018-07-23T09:26:04.242Z,23.00
2018-07-23T09:28:33.221Z,23.20
2018-07-23T09:35:58.945Z,24.10
2018-07-23T09:38:27.721Z,24.20
2018-07-23T09:43:25.014Z,24.10
2018-07-23T09:45:53.784Z,24.00
2018-07-23T09:53:19.634Z,24.40
2018-07-23T09:55:48.401Z,24.60
2018-07-23T09:58:17.241Z,24.70
2018-07-23T10:00:51.305Z,24.70
2018-07-23T10:03:20.157Z,24.90
2018-07-23T10:05:48.841Z,25.40
2018-07-23T10:08:17.665Z,25.50
2018-07-23T10:10:46.403Z,25.30
2018-07-23T10:13:15.151Z,25.30
2018-07-23T10:15:43.900Z,25.50
2018-07-23T10:18:12.632Z,25.60
2018-07-23T10:20:41.432Z,25.70
2018-07-23T10:23:10.305Z,25.80
2018-07-23T10:25:39.052Z,25.70
2018-07-23T10:28:07.893Z,25.60
2018-07-23T10:30:36.769Z,25.60
2018-07-23T10:33:05.824Z,25.90
2018-07-23T10:35:34.580Z,26.00
2018-07-23T10:45:28.778Z,25.70
2018-07-23T10:47:57.676Z,25.80
2018-07-23T10:50:26.424Z,26.30
2018-07-23T10:52:55.193Z,26.30
2018-07-23T10:55:24.062Z,26.40
2018-07-23T11:00:21.360Z,26.30
2018-07-23T11:02:50.264Z,26.30
2018-07-23T11:10:16.101Z,26.40
2018-07-23T11:12:44.872Z,26.40
2018-07-23T11:15:13.683Z,26.50
2018-07-23T11:17:42.457Z,26.60
2018-07-23T11:20:12.534Z,26.60
2018-07-23T11:22:41.560Z,26.60
2018-07-23T11:25:38.810Z,26.60
2018-07-23T11:27:39.133Z,26.60
2018-07-23T11:30:08.084Z,26.60
2018-07-23T11:32:37.105Z,26.80
2018-07-23T11:35:06.160Z,27.00
2018-07-23T11:37:34.908Z,27.50
2018-07-23T11:40:03.673Z,27.40
2018-07-23T11:42:32.429Z,27.20
2018-07-23T11:45:01.347Z,27.10
2018-07-23T11:47:30.126Z,27.30
2018-07-23T11:49:58.917Z,27.40
2018-07-23T11:52:27.705Z,27.60
2018-07-23T11:55:03.000Z,27.90
2018-07-23T11:57:31.913Z,28.30
2018-07-23T12:00:00.728Z,28.70
2018-07-23T12:02:29.564Z,28.20
2018-07-23T12:04:58.548Z,28.10
2018-07-23T12:12:24.380Z,28.30
2018-07-23T12:14:53.157Z,27.90
2018-07-23T12:17:22.042Z,27.60
2018-07-23T12:24:47.696Z,28.70
2018-07-23T12:27:16.514Z,29.20
2018-07-23T12:32:13.773Z,29.40
2018-07-23T12:34:42.665Z,29.50
2018-07-23T12:37:11.448Z,29.40
2018-07-23T12:39:40.310Z,29.30
2018-07-23T12:44:37.513Z,29.70
2018-07-23T12:47:06.401Z,30.20
2018-07-23T12:49:35.085Z,30.30
2018-07-23T12:52:03.891Z,30.20
2018-07-23T12:54:32.765Z,30.80
2018-07-23T12:57:01.526Z,30.80
2018-07-23T12:59:30.359Z,30.70
2018-07-23T13:01:59.334Z,30.80
2018-07-23T13:04:28.286Z,30.50
2018-07-23T13:06:56.996Z,30.60
2018-07-23T13:09:25.756Z,31.10
2018-07-23T13:11:54.513Z,31.20
2018-07-23T13:14:23.269Z,30.80
2018-07-23T13:16:52.273Z,30.80
2018-07-23T13:19:21.017Z,31.00
2018-07-23T13:21:49.794Z,31.00
2018-07-23T13:24:18.536Z,31.10
2018-07-23T13:26:47.309Z,30.80
2018-07-23T13:29:16.083Z,30.40
2018-07-23T13:31:44.893Z,30.40
2018-07-23T13:34:13.685Z,30.30
2018-07-23T13:36:42.469Z,30.80
2018-07-23T13:39:13.030Z,30.80
2018-07-23T13:44:11.619Z,30.10
2018-07-23T13:46:40.837Z,30.70
2018-07-23T13:54:06.625Z,31.40
2018-07-23T13:56:35.514Z,31.60
2018-07-23T13:59:04.332Z,32.20
2018-07-23T14:01:33.106Z,32.30
2018-07-23T14:04:02.037Z,32.20
2018-07-23T14:06:30.837Z,32.00
2018-07-23T14:08:59.585Z,32.10
2018-07-23T14:11:28.493Z,32.10
2018-07-23T14:13:57.266Z,32.30
2018-07-23T14:16:26.026Z,32.50
2018-07-23T14:18:54.784Z,32.50
2018-07-23T14:23:52.130Z,31.90
2018-07-23T14:26:20.955Z,32.00
2018-07-23T14:28:49.746Z,31.80
2018-07-23T14:31:18.909Z,31.90
2018-07-23T14:33:47.697Z,32.30
2018-07-23T14:36:16.489Z,32.80
2018-07-23T14:38:45.247Z,32.70
2018-07-23T14:41:14.021Z,32.60
2018-07-23T14:43:42.756Z,32.90
2018-07-23T14:46:11.582Z,32.60
2018-07-23T14:48:40.333Z,32.50
2018-07-23T14:51:09.149Z,32.60
2018-07-23T14:56:06.404Z,33.30
2018-07-23T15:01:03.711Z,33.50
2018-07-23T15:03:32.514Z,33.20
2018-07-23T15:06:01.268Z,33.40
2018-07-23T15:08:30.017Z,33.50
2018-07-23T15:10:58.801Z,33.30
2018-07-23T15:13:27.552Z,33.40
2018-07-23T15:15:56.349Z,33.40
2018-07-23T15:18:25.177Z,33.60
2018-07-23T15:20:53.921Z,33.90
2018-07-23T15:23:22.765Z,33.80
2018-07-23T15:25:51.530Z,33.80
2018-07-23T15:28:20.374Z,33.70
2018-07-23T15:30:49.205Z,33.50
2018-07-23T15:33:18.077Z,33.60
2018-07-23T15:35:46.874Z,33.60
2018-07-23T15:38:15.769Z,33.70
2018-07-23T15:40:44.617Z,33.80
2018-07-23T15:43:13.412Z,34.00
2018-07-23T15:45:42.461Z,34.10
2018-07-23T15:48:11.635Z,34.10
2018-07-23T15:50:40.392Z,34.10
2018-07-23T15:53:09.146Z,34.00
2018-07-23T15:55:37.864Z,34.30
2018-07-23T15:58:06.607Z,34.30
2018-07-23T16:00:35.385Z,34.40
2018-07-23T16:03:04.150Z,34.50
2018-07-23T16:05:33.072Z,34.10
2018-07-23T16:08:01.934Z,33.60
2018-07-23T16:10:30.740Z,33.20
2018-07-23T16:12:59.514Z,33.10
2018-07-23T16:15:28.256Z,32.60
2018-07-23T16:17:57.171Z,32.50
2018-07-23T16:20:26.217Z,32.80
2018-07-23T16:22:54.957Z,33.00
2018-07-23T16:25:23.720Z,33.40
2018-07-23T16:27:52.584Z,33.60
2018-07-23T16:30:21.348Z,33.70
2018-07-23T16:32:50.198Z,33.70
2018-07-23T16:35:18.945Z,33.70
2018-07-23T16:37:47.749Z,33.60
2018-07-23T16:40:16.560Z,33.10
2018-07-23T16:42:45.388Z,32.80
2018-07-23T16:45:14.364Z,32.80
2018-07-23T16:47:43.749Z,33.00
2018-07-23T16:52:41.161Z,32.80
2018-07-23T16:55:09.957Z,32.10
2018-07-23T16:57:38.837Z,31.90
2018-07-23T17:00:07.665Z,32.40
2018-07-23T17:02:36.587Z,32.80
2018-07-23T17:07:33.841Z,32.70
2018-07-23T17:10:02.616Z,32.40
2018-07-23T17:12:31.429Z,32.50
2018-07-23T17:17:29.149Z,32.60
2018-07-23T17:19:57.977Z,32.60
2018-07-23T17:22:26.785Z,32.70
2018-07-23T17:27:24.304Z,32.70
2018-07-23T17:29:53.337Z,32.60
2018-07-23T17:32:22.580Z,32.70
2018-07-23T17:34:51.357Z,32.60
2018-07-23T17:37:20.440Z,32.50
2018-07-23T17:39:49.237Z,32.30
2018-07-23T17:42:17.997Z,32.70
2018-07-23T17:44:47.246Z,32.50
2018-07-23T17:47:16.121Z,32.50
2018-07-23T17:49:44.953Z,32.20
2018-07-23T17:52:13.743Z,32.30
2018-07-23T17:54:42.568Z,32.30
2018-07-23T17:57:11.406Z,32.30
2018-07-23T17:59:40.196Z,31.90
2018-07-23T18:02:09.248Z,32.00
2018-07-23T18:04:38.001Z,32.00
2018-07-23T18:07:06.793Z,31.90
2018-07-23T18:09:35.616Z,32.00
2018-07-23T18:12:04.382Z,31.90
2018-07-23T18:14:33.188Z,31.90
2018-07-23T18:17:02.024Z,31.90
2018-07-23T18:19:30.841Z,31.90
2018-07-23T18:21:59.738Z,31.70
2018-07-23T18:24:28.494Z,31.60
2018-07-23T18:26:57.243Z,31.50
2018-07-23T18:29:26.035Z,31.30
2018-07-23T18:31:54.758Z,31.50
2018-07-23T18:34:23.517Z,32.10
2018-07-23T18:39:20.977Z,33.10
2018-07-23T18:41:50.094Z,33.00
2018-07-23T18:44:19.080Z,32.80
2018-07-23T18:46:48.114Z,32.70
2018-07-23T18:49:36.305Z,32.80
2018-07-23T18:52:05.364Z,32.00
2018-07-23T18:54:34.836Z,30.90
2018-07-23T18:59:34.687Z,29.80
2018-07-23T19:04:33.461Z,29.30
2018-07-23T19:09:31.029Z,28.70
2018-07-23T19:12:01.193Z,28.60
2018-07-23T19:14:30.152Z,28.30
2018-07-23T19:16:59.845Z,28.30
2018-07-23T19:19:28.660Z,28.00
2018-07-23T19:21:57.413Z,27.90
2018-07-23T19:24:26.212Z,27.80
2018-07-23T19:26:54.996Z,27.70
2018-07-23T19:29:23.781Z,27.40
2018-07-23T19:31:52.555Z,27.30
2018-07-23T19:34:21.311Z,27.20
2018-07-23T19:36:50.176Z,27.20
2018-07-23T19:39:20.182Z,27.10
2018-07-23T19:44:19.186Z,26.70
2018-07-23T19:49:16.545Z,26.60
2018-07-23T19:51:45.342Z,26.50
2018-07-23T19:54:14.204Z,26.40
2018-07-23T19:56:42.984Z,26.30
2018-07-23T19:59:12.006Z,26.20
2018-07-23T20:01:40.832Z,26.10
2018-07-23T20:04:09.738Z,26.00
2018-07-23T20:06:38.504Z,26.00
2018-07-23T20:09:09.170Z,25.90
2018-07-23T20:11:37.931Z,25.80
2018-07-23T20:14:06.708Z,25.70
2018-07-23T20:16:35.505Z,25.60
2018-07-23T20:19:04.288Z,25.60
2018-07-23T20:21:33.099Z,25.50
2018-07-23T20:24:01.872Z,25.40
2018-07-23T20:26:32.177Z,25.40
2018-07-23T20:29:00.965Z,25.20
2018-07-23T20:31:29.714Z,25.10
2018-07-23T20:33:58.496Z,25.10
2018-07-23T20:36:27.245Z,25.00
2018-07-23T20:38:56.120Z,25.00
2018-07-23T20:41:24.909Z,24.80
2018-07-23T20:43:53.727Z,24.80
2018-07-23T20:46:23.089Z,24.70
2018-07-23T20:48:52.143Z,24.60
2018-07-23T20:51:20.885Z,24.50
2018-07-23T20:53:49.872Z,24.50
2018-07-23T20:58:47.609Z,24.40
2018-07-23T21:01:16.473Z,24.30
2018-07-23T21:06:13.817Z,24.20
2018-07-23T21:08:42.669Z,24.20
2018-07-23T21:11:11.593Z,24.10
2018-07-23T21:13:40.417Z,24.10
2018-07-23T21:18:37.868Z,24.00
2018-07-23T21:21:06.875Z,23.90
2018-07-23T21:23:35.645Z,23.90
2018-07-23T21:26:04.617Z,23.80
2018-07-23T21:28:33.393Z,23.70
2018-07-23T21:31:02.145Z,23.60
2018-07-23T21:35:59.392Z,23.50
2018-07-23T21:38:28.234Z,23.50
2018-07-23T21:45:53.954Z,23.30
2018-07-23T21:48:22.784Z,23.30
2018-07-23T21:50:51.545Z,23.20
2018-07-23T21:53:20.328Z,23.10
2018-07-23T22:00:46.023Z,23.00
2018-07-23T22:03:15.033Z,23.00
2018-07-23T22:05:43.933Z,22.90
2018-07-23T22:08:12.725Z,22.90
2018-07-23T22:10:41.478Z,22.90
2018-07-23T22:13:10.253Z,22.80
2018-07-23T22:15:38.985Z,22.70
2018-07-23T22:18:07.853Z,22.70
2018-07-23T22:20:36.717Z,22.70
2018-07-23T22:23:05.798Z,22.60
2018-07-23T22:25:34.550Z,22.50
2018-07-23T22:28:03.269Z,22.50
2018-07-23T22:33:00.613Z,22.50
2018-07-23T22:35:29.361Z,22.50
2018-07-23T22:37:58.321Z,22.40
2018-07-23T22:42:55.524Z,22.40
2018-07-23T22:45:24.388Z,22.30
2018-07-23T22:50:21.831Z,22.30
2018-07-23T22:52:50.595Z,22.30
2018-07-23T22:55:19.371Z,22.30
2018-07-23T22:57:48.253Z,22.20
2018-07-23T23:00:17.096Z,22.20
2018-07-23T23:02:45.852Z,22.20
2018-07-23T23:05:14.641Z,22.10
2018-07-23T23:07:43.480Z,22.10
2018-07-23T23:10:12.336Z,22.00
2018-07-23T23:12:41.167Z,22.00
2018-07-23T23:17:38.716Z,22.00
2018-07-23T23:20:07.540Z,21.90
2018-07-23T23:22:36.372Z,21.90
2018-07-23T23:25:05.120Z,21.80
2018-07-23T23:27:33.928Z,21.80
2018-07-23T23:30:02.637Z,21.80
2018-07-23T23:32:31.404Z,21.80
2018-07-23T23:35:00.162Z,21.70
2018-07-23T23:39:57.381Z,21.70
2018-07-23T23:42:26.351Z,21.70
2018-07-23T23:44:55.505Z,21.60
2018-07-23T23:49:52.769Z,21.50
2018-07-23T23:52:21.524Z,21.60
2018-07-23T23:54:50.309Z,21.50
2018-07-23T23:57:19.036Z,21.50
